createdAt,value
2022-12-18T00:01:25.100Z,99081.69
2022-12-18T00:03:53.764Z,99090.22
2022-12-18T00:06:22.452Z,99086.09
2022-12-18T00:08:50.564Z,99079.94
2022-12-18T00:11:19.774Z,99078.03
2022-12-18T00:13:47.772Z,99067.28
2022-12-18T00:16:19.391Z,99062.38
2022-12-18T00:18:48.868Z,99056.44
2022-12-18T00:21:17.030Z,99059.78
2022-12-18T00:23:46.513Z,99064.03
2022-12-18T00:26:19.138Z,99058.03
2022-12-18T00:28:47.675Z,99058.88
2022-12-18T00:31:17.566Z,99066.75
2022-12-18T00:33:45.479Z,99062.59
2022-12-18T00:36:16.759Z,99057.66
2022-12-18T00:38:44.912Z,99063.69
2022-12-18T00:41:14.410Z,99077.44
2022-12-18T00:43:41.816Z,99080.00
2022-12-18T00:46:09.625Z,99082.72
2022-12-18T00:48:37.411Z,99074.00
2022-12-18T00:51:04.845Z,99063.81
2022-12-18T00:53:33.614Z,99078.50
2022-12-18T00:56:01.298Z,99065.75
2022-12-18T00:58:28.715Z,99074.47
2022-12-18T01:00:56.177Z,99081.38
2022-12-18T01:03:23.617Z,99090.91
2022-12-18T01:05:51.050Z,99114.13
2022-12-18T01:08:18.499Z,99111.81
2022-12-18T01:10:47.335Z,99114.41
2022-12-18T01:13:15.066Z,99117.78
2022-12-18T01:15:42.498Z,99113.78
2022-12-18T01:18:09.943Z,99108.19
2022-12-18T01:20:37.367Z,99106.81
2022-12-18T01:23:04.796Z,99101.03
2022-12-18T01:25:32.224Z,99110.19
2022-12-18T01:28:01.017Z,99100.91
2022-12-18T01:30:28.495Z,99093.28
2022-12-18T01:32:55.974Z,99103.66
2022-12-18T01:35:23.455Z,99105.66
2022-12-18T01:37:50.906Z,99118.53
2022-12-18T01:40:18.528Z,99117.59
2022-12-18T01:42:45.942Z,99121.22
2022-12-18T01:45:29.513Z,99118.03
2022-12-18T01:47:59.735Z,99128.38
2022-12-18T01:50:32.359Z,99139.41
2022-12-18T01:53:03.267Z,99139.19
2022-12-18T01:55:33.916Z,99138.25
2022-12-18T01:58:02.249Z,99150.47
2022-12-18T02:00:31.705Z,99158.56
2022-12-18T02:02:59.664Z,99142.22
2022-12-18T02:05:39.464Z,99144.03
2022-12-18T02:08:14.876Z,99143.47
2022-12-18T02:10:49.967Z,99154.75
2022-12-18T02:13:26.106Z,99168.44
2022-12-18T02:16:03.105Z,99164.63
2022-12-18T02:18:35.899Z,99167.97
2022-12-18T02:21:11.707Z,99165.38
2022-12-18T02:23:45.158Z,99162.34
2022-12-18T02:26:23.984Z,99166.69
2022-12-18T02:28:55.643Z,99163.94
2022-12-18T02:31:27.951Z,99159.75
2022-12-18T02:33:58.407Z,99162.88
2022-12-18T02:36:28.602Z,99152.50
2022-12-18T02:38:57.430Z,99154.53
2022-12-18T02:41:27.455Z,99158.88
2022-12-18T02:43:58.530Z,99166.22
2022-12-18T02:46:32.020Z,99183.16
2022-12-18T02:49:08.547Z,99181.16
2022-12-18T02:51:45.925Z,99186.06
2022-12-18T02:54:23.141Z,99173.72
2022-12-18T02:56:56.178Z,99162.19
2022-12-18T02:59:32.573Z,99171.34
2022-12-18T03:02:05.108Z,99162.84
2022-12-18T03:04:40.967Z,99154.03
2022-12-18T03:07:12.549Z,99139.06
2022-12-18T03:09:44.802Z,99146.72
2022-12-18T03:12:26.144Z,99149.28
2022-12-18T03:14:58.849Z,99150.19
2022-12-18T03:17:29.835Z,99149.44
2022-12-18T03:20:00.294Z,99148.50
2022-12-18T03:22:31.961Z,99157.94
2022-12-18T03:25:02.891Z,99169.47
2022-12-18T03:27:33.399Z,99187.56
2022-12-18T03:30:08.302Z,99179.13
2022-12-18T03:32:42.316Z,99174.13
2022-12-18T03:35:12.615Z,99166.63
2022-12-18T03:37:40.591Z,99167.09
2022-12-18T03:40:09.052Z,99177.78
2022-12-18T03:42:47.516Z,99178.06
2022-12-18T03:45:22.436Z,99188.47
2022-12-18T03:47:59.564Z,99185.50
2022-12-18T03:50:36.062Z,99173.06
2022-12-18T03:53:16.341Z,99175.03
2022-12-18T03:55:45.551Z,99156.31
2022-12-18T03:58:19.167Z,99158.94
2022-12-18T04:00:49.808Z,99153.91
2022-12-18T04:03:22.680Z,99160.94
2022-12-18T04:05:56.373Z,99161.84
2022-12-18T04:08:25.457Z,99172.69
2022-12-18T04:10:53.158Z,99189.47
2022-12-18T04:13:26.459Z,99185.50
2022-12-18T04:15:54.079Z,99196.09
2022-12-18T04:18:21.717Z,99196.75
2022-12-18T04:20:49.142Z,99197.91
2022-12-18T04:23:16.622Z,99196.97
2022-12-18T04:25:44.053Z,99194.16
2022-12-18T04:28:11.761Z,99185.22
2022-12-18T04:30:40.561Z,99201.31
2022-12-18T04:33:10.604Z,99198.50
2022-12-18T04:35:38.060Z,99194.72
2022-12-18T04:38:05.619Z,99194.84
2022-12-18T04:40:33.610Z,99196.84
2022-12-18T04:43:01.087Z,99195.66
2022-12-18T04:45:28.572Z,99204.88
2022-12-18T04:47:59.054Z,99195.56
2022-12-18T04:50:26.564Z,99196.94
2022-12-18T04:52:54.320Z,99192.72
2022-12-18T04:55:21.919Z,99189.66
2022-12-18T04:57:49.424Z,99181.16
2022-12-18T05:00:17.487Z,99186.03
2022-12-18T05:02:44.968Z,99190.34
2022-12-18T05:05:13.984Z,99179.84
2022-12-18T05:07:41.565Z,99183.63
2022-12-18T05:10:09.698Z,99179.81
2022-12-18T05:12:58.782Z,99174.00
2022-12-18T05:15:30.089Z,99178.81
2022-12-18T05:17:58.008Z,99187.38
2022-12-18T05:20:27.907Z,99176.91
2022-12-18T05:22:56.039Z,99177.13
2022-12-18T05:25:24.482Z,99187.47
2022-12-18T05:27:51.955Z,99190.47
2022-12-18T05:30:19.641Z,99189.19
2022-12-18T05:32:47.067Z,99185.97
2022-12-18T05:35:14.512Z,99198.00
2022-12-18T05:37:43.678Z,99195.34
2022-12-18T05:40:12.423Z,99200.41
2022-12-18T05:42:39.916Z,99195.63
2022-12-18T05:45:08.374Z,99192.38
2022-12-18T05:47:35.857Z,99198.41
2022-12-18T05:50:03.328Z,99199.03
2022-12-18T05:52:30.801Z,99200.66
2022-12-18T05:55:00.249Z,99198.75
2022-12-18T05:57:27.694Z,99210.25
2022-12-18T05:59:55.232Z,99201.34
2022-12-18T06:02:22.903Z,99204.13
2022-12-18T06:04:50.450Z,99206.22
2022-12-18T06:07:18.299Z,99204.50
2022-12-18T06:09:45.748Z,99210.94
2022-12-18T06:12:14.526Z,99205.16
2022-12-18T06:14:41.942Z,99194.94
2022-12-18T06:17:09.856Z,99194.16
2022-12-18T06:19:37.348Z,99196.78
2022-12-18T06:22:04.787Z,99205.63
2022-12-18T06:24:32.380Z,99218.13
2022-12-18T06:26:59.814Z,99221.84
2022-12-18T06:29:28.604Z,99229.59
2022-12-18T06:31:56.125Z,99224.72
2022-12-18T06:34:23.666Z,99229.91
2022-12-18T06:36:51.115Z,99218.78
2022-12-18T06:39:18.643Z,99226.75
2022-12-18T06:41:46.076Z,99236.84
2022-12-18T06:44:13.909Z,99235.69
2022-12-18T06:46:42.716Z,99235.66
2022-12-18T06:49:10.635Z,99228.56
2022-12-18T06:51:38.069Z,99231.44
2022-12-18T06:54:05.810Z,99227.47
2022-12-18T06:56:35.818Z,99244.59
2022-12-18T06:59:03.290Z,99238.00
2022-12-18T07:01:30.793Z,99244.06
2022-12-18T07:04:00.070Z,99244.31
2022-12-18T07:06:28.106Z,99228.91
2022-12-18T07:08:56.704Z,99235.81
2022-12-18T07:11:24.401Z,99235.84
2022-12-18T07:13:51.867Z,99225.50
2022-12-18T07:16:25.236Z,99220.31
2022-12-18T07:18:53.252Z,99218.00
2022-12-18T07:21:22.429Z,99217.91
2022-12-18T07:23:49.918Z,99217.22
2022-12-18T07:26:19.100Z,99223.44
2022-12-18T07:28:46.607Z,99221.34
2022-12-18T07:31:16.777Z,99234.84
2022-12-18T07:33:45.169Z,99227.56
2022-12-18T07:36:13.127Z,99239.09
2022-12-18T07:38:42.239Z,99253.19
2022-12-18T07:41:11.664Z,99255.19
2022-12-18T07:43:40.254Z,99266.97
2022-12-18T07:46:10.099Z,99264.13
2022-12-18T07:48:37.704Z,99260.47
2022-12-18T07:51:08.100Z,99264.06
2022-12-18T07:53:37.779Z,99262.19
2022-12-18T07:58:57.669Z,99278.06
2022-12-18T08:01:25.526Z,99269.97
2022-12-18T08:03:53.243Z,99277.13
2022-12-18T08:06:22.142Z,99273.97
2022-12-18T08:08:52.790Z,99275.53
2022-12-18T08:11:21.616Z,99284.97
2022-12-18T08:13:49.471Z,99284.66
2022-12-18T08:16:18.003Z,99280.09
2022-12-18T08:18:45.588Z,99275.91
2022-12-18T08:21:14.565Z,99272.09
2022-12-18T08:23:43.356Z,99274.78
2022-12-18T08:26:11.928Z,99275.84
2022-12-18T08:28:41.025Z,99284.34
2022-12-18T08:31:09.359Z,99282.38
2022-12-18T08:33:38.242Z,99273.91
2022-12-18T08:36:07.049Z,99275.00
2022-12-18T08:38:35.142Z,99269.50
2022-12-18T08:41:03.054Z,99279.50
2022-12-18T08:43:48.083Z,99280.28
2022-12-18T08:46:16.919Z,99287.16
2022-12-18T08:48:44.541Z,99277.47
2022-12-18T08:51:12.143Z,99278.31
2022-12-18T08:53:39.994Z,99275.06
2022-12-18T08:56:08.315Z,99268.25
2022-12-18T08:58:35.950Z,99275.97
2022-12-18T09:01:04.240Z,99275.31
2022-12-18T09:03:34.437Z,99271.59
2022-12-18T09:06:01.902Z,99261.81
2022-12-18T09:08:29.460Z,99264.16
2022-12-18T09:10:57.306Z,99270.41
2022-12-18T09:13:24.969Z,99268.28
2022-12-18T09:15:54.259Z,99264.28
2022-12-18T09:18:23.184Z,99271.84
2022-12-18T09:20:53.488Z,99273.09
2022-12-18T09:23:21.505Z,99274.34
2022-12-18T09:25:49.070Z,99270.03
2022-12-18T09:28:18.939Z,99264.16
2022-12-18T09:30:49.607Z,99264.63
2022-12-18T09:33:17.481Z,99271.44
2022-12-18T09:35:46.565Z,99252.69
2022-12-18T09:38:20.037Z,99261.22
2022-12-18T09:40:55.777Z,99249.97
2022-12-18T09:43:26.717Z,99246.03
2022-12-18T09:46:01.442Z,99246.69
2022-12-18T09:48:32.888Z,99245.31
2022-12-18T09:51:05.649Z,99239.78
2022-12-18T09:53:40.450Z,99240.72
2022-12-18T09:56:14.678Z,99240.19
2022-12-18T09:58:47.243Z,99253.91
2022-12-18T10:01:18.117Z,99249.72
2022-12-18T10:03:45.769Z,99249.66
2022-12-18T10:06:17.431Z,99250.75
2022-12-18T10:08:50.942Z,99242.63
2022-12-18T10:11:36.991Z,99233.34
2022-12-18T10:14:12.644Z,99232.19
2022-12-18T10:16:49.223Z,99226.31
2022-12-18T10:19:30.408Z,99222.22
2022-12-18T10:22:06.894Z,99224.75
2022-12-18T10:24:44.397Z,99217.41
2022-12-18T10:27:16.335Z,99222.78
2022-12-18T10:29:45.771Z,99223.03
2022-12-18T10:32:17.279Z,99216.56
2022-12-18T10:34:47.825Z,99218.91
2022-12-18T10:37:19.139Z,99217.06
2022-12-18T10:39:48.553Z,99217.34
2022-12-18T10:42:20.971Z,99226.19
2022-12-18T10:45:02.581Z,99226.34
2022-12-18T10:47:30.047Z,99230.66
2022-12-18T10:49:57.584Z,99226.53
2022-12-18T10:52:27.416Z,99224.50
2022-12-18T10:54:59.348Z,99224.00
2022-12-18T10:57:36.531Z,99237.94
2022-12-18T11:00:24.389Z,99230.09
2022-12-18T11:02:53.079Z,99243.88
2022-12-18T11:05:30.996Z,99244.88
2022-12-18T11:07:59.747Z,99234.31
2022-12-18T11:10:34.193Z,99230.44
2022-12-18T11:13:13.527Z,99218.06
2022-12-18T11:15:42.554Z,99213.81
2022-12-18T11:18:23.939Z,99213.97
2022-12-18T11:20:58.636Z,99215.53
2022-12-18T11:23:28.103Z,99219.34
2022-12-18T11:26:00.278Z,99217.06
2022-12-18T11:28:38.998Z,99207.66
2022-12-18T11:31:25.819Z,99210.69
2022-12-18T11:34:28.226Z,99205.41
2022-12-18T11:36:52.821Z,99208.97
2022-12-18T11:39:26.456Z,99208.06
2022-12-18T11:42:13.224Z,99188.19
2022-12-18T11:44:47.698Z,99185.50
2022-12-18T11:47:26.445Z,99191.31
2022-12-18T11:49:57.881Z,99189.44
2022-12-18T11:52:28.667Z,99178.91
2022-12-18T11:55:00.737Z,99179.25
2022-12-18T11:57:39.180Z,99174.59
2022-12-18T12:00:14.084Z,99177.16
2022-12-18T12:03:15.872Z,99167.88
2022-12-18T12:05:57.901Z,99168.63
2022-12-18T12:08:36.184Z,99177.78
2022-12-18T12:11:12.051Z,99179.97
2022-12-18T12:13:49.670Z,99175.06
2022-12-18T12:16:23.074Z,99175.56
2022-12-18T12:19:03.752Z,99159.59
2022-12-18T12:21:42.755Z,99165.72
2022-12-18T12:24:26.276Z,99160.34
2022-12-18T12:27:03.257Z,99165.66
2022-12-18T12:29:44.474Z,99157.91
2022-12-18T12:32:31.864Z,99162.22
2022-12-18T12:35:15.267Z,99159.53
2022-12-18T12:37:55.610Z,99161.72
2022-12-18T12:40:51.087Z,99163.41
2022-12-18T12:43:24.317Z,99154.50
2022-12-18T12:45:57.607Z,99152.44
2022-12-18T12:48:36.929Z,99153.13
2022-12-18T12:51:10.423Z,99151.72
2022-12-18T12:53:40.427Z,99142.53
2022-12-18T12:56:11.808Z,99144.31
2022-12-18T12:58:48.940Z,99141.06
2022-12-18T13:01:30.952Z,99136.91
2022-12-18T13:04:09.024Z,99134.97
2022-12-18T13:06:44.900Z,99123.72
2022-12-18T13:09:14.106Z,99131.50
2022-12-18T13:12:00.791Z,99128.81
2022-12-18T13:14:31.998Z,99126.34
2022-12-18T13:17:31.033Z,99130.22
2022-12-18T13:20:09.572Z,99125.34
2022-12-18T13:22:39.183Z,99135.06
2022-12-18T13:25:36.399Z,99131.53
2022-12-18T13:28:09.208Z,99122.13
2022-12-18T13:30:58.509Z,99128.50
2022-12-18T13:36:39.530Z,99122.88
2022-12-18T13:39:13.912Z,99129.13
2022-12-18T13:41:42.424Z,99117.00
2022-12-18T13:44:14.379Z,99124.34
2022-12-18T13:46:46.911Z,99126.78
2022-12-18T13:49:27.216Z,99115.56
2022-12-18T13:51:57.019Z,99128.50
2022-12-18T13:54:35.385Z,99133.59
2022-12-18T13:57:04.049Z,99135.91
2022-12-18T13:59:36.183Z,99130.81
2022-12-18T14:02:16.024Z,99115.84
2022-12-18T14:04:48.121Z,99097.94
2022-12-18T14:07:18.902Z,99100.91
2022-12-18T14:09:49.801Z,99094.81
2022-12-18T14:12:37.584Z,99098.06
2022-12-18T14:15:08.223Z,99105.72
2022-12-18T14:17:36.053Z,99105.44
2022-12-18T14:20:14.683Z,99098.94
2022-12-18T14:22:45.509Z,99102.75
2022-12-18T14:25:18.822Z,99109.22
2022-12-18T14:27:48.205Z,99104.13
2022-12-18T14:30:38.422Z,99107.59
2022-12-18T14:33:07.946Z,99117.38
2022-12-18T14:35:39.759Z,99114.66
2022-12-18T14:38:25.655Z,99116.81
2022-12-18T14:40:58.951Z,99116.53
2022-12-18T14:43:26.645Z,99110.06
2022-12-18T14:45:54.492Z,99120.88
2022-12-18T14:48:26.524Z,99123.03
2022-12-18T14:51:01.824Z,99131.00
2022-12-18T14:53:36.014Z,99113.00
2022-12-18T14:56:04.175Z,99125.28
2022-12-18T14:58:31.855Z,99114.66
2022-12-18T15:00:59.466Z,99121.31
2022-12-18T15:03:27.080Z,99124.94
2022-12-18T15:05:54.630Z,99126.81
2022-12-18T15:08:37.113Z,99124.94
2022-12-18T15:11:10.307Z,99126.44
2022-12-18T15:13:41.301Z,99124.47
2022-12-18T15:16:14.111Z,99129.97
2022-12-18T15:18:46.034Z,99133.09
2022-12-18T15:21:19.106Z,99119.66
2022-12-18T15:23:50.740Z,99119.84
2022-12-18T15:26:20.436Z,99127.31
2022-12-18T15:28:50.811Z,99121.53
2022-12-18T15:31:32.254Z,99129.47
2022-12-18T15:34:13.197Z,99129.91
2022-12-18T15:36:40.934Z,99135.28
2022-12-18T15:39:13.116Z,99131.34
2022-12-18T15:41:41.343Z,99133.09
2022-12-18T15:44:23.617Z,99129.09
2022-12-18T15:46:51.119Z,99131.38
2022-12-18T15:49:18.565Z,99128.00
2022-12-18T15:51:46.455Z,99133.34
2022-12-18T15:54:17.631Z,99137.91
2022-12-18T15:57:02.794Z,99139.19
2022-12-18T15:59:30.263Z,99133.66
2022-12-18T16:01:58.425Z,99135.41
2022-12-18T16:04:26.425Z,99130.88
2022-12-18T16:09:42.975Z,99131.28
2022-12-18T16:12:17.933Z,99134.09
2022-12-18T16:14:45.912Z,99135.38
2022-12-18T16:17:14.592Z,99125.44
2022-12-18T16:19:45.296Z,99131.56
2022-12-18T16:22:21.798Z,99134.09
2022-12-18T16:24:51.393Z,99132.78
2022-12-18T16:27:19.010Z,99123.44
2022-12-18T16:29:46.612Z,99122.09
2022-12-18T16:32:16.127Z,99120.56
2022-12-18T16:34:44.455Z,99122.88
2022-12-18T16:37:14.181Z,99120.97
2022-12-18T16:39:42.701Z,99116.34
2022-12-18T16:42:15.461Z,99116.22
2022-12-18T16:44:43.342Z,99123.84
2022-12-18T16:47:14.355Z,99116.56
2022-12-18T16:49:43.022Z,99108.91
2022-12-18T16:52:10.495Z,99118.34
2022-12-18T16:54:37.950Z,99111.41
2022-12-18T16:57:06.193Z,99116.00
2022-12-18T16:59:35.216Z,99116.16
2022-12-18T17:02:06.790Z,99114.91
2022-12-18T17:04:34.611Z,99108.97
2022-12-18T17:07:02.053Z,99110.88
2022-12-18T17:09:29.472Z,99113.09
2022-12-18T17:11:57.220Z,99107.84
2022-12-18T17:14:25.957Z,99106.78
2022-12-18T17:17:19.834Z,99107.16
2022-12-18T17:19:44.398Z,99105.38
2022-12-18T17:22:11.874Z,99095.03
2022-12-18T17:24:39.569Z,99092.66
2022-12-18T17:27:08.483Z,99095.63
2022-12-18T17:29:35.951Z,99096.81
2022-12-18T17:32:05.095Z,99098.94
2022-12-18T17:34:32.520Z,99095.56
2022-12-18T17:36:59.976Z,99092.06
2022-12-18T17:39:28.613Z,99092.78
2022-12-18T17:41:56.711Z,99091.41
2022-12-18T17:44:24.164Z,99091.56
2022-12-18T17:46:51.653Z,99091.94
2022-12-18T17:49:20.448Z,99080.91
2022-12-18T17:51:48.427Z,99083.84
2022-12-18T17:54:15.931Z,99085.50
2022-12-18T17:56:43.618Z,99081.91
2022-12-18T17:59:11.114Z,99077.91
2022-12-18T18:01:44.133Z,99086.69
2022-12-18T18:04:13.149Z,99083.22
2022-12-18T18:06:42.225Z,99086.63
2022-12-18T18:09:16.339Z,99083.88
2022-12-18T18:12:02.517Z,99075.34
2022-12-18T18:14:30.194Z,99071.84
2022-12-18T18:17:02.846Z,99075.91
2022-12-18T18:19:33.718Z,99072.06
2022-12-18T18:22:03.095Z,99073.38
2022-12-18T18:24:31.652Z,99083.66
2022-12-18T18:26:59.960Z,99080.56
2022-12-18T18:29:30.160Z,99090.03
2022-12-18T18:31:58.130Z,99083.50
2022-12-18T18:34:27.362Z,99078.00
2022-12-18T18:36:54.999Z,99075.72
2022-12-18T18:39:23.802Z,99082.53
2022-12-18T18:41:51.407Z,99072.28
2022-12-18T18:44:20.632Z,99069.56
2022-12-18T18:46:54.001Z,99071.06
2022-12-18T18:49:21.438Z,99072.31
2022-12-18T18:51:51.527Z,99067.63
2022-12-18T18:54:18.975Z,99058.47
2022-12-18T18:57:19.369Z,99064.91
2022-12-18T18:59:36.948Z,99072.13
2022-12-18T19:02:05.137Z,99065.69
2022-12-18T19:04:33.508Z,99071.16
2022-12-18T19:07:01.171Z,99055.38
2022-12-18T19:09:29.335Z,99053.06
2022-12-18T19:12:16.391Z,99055.44
2022-12-18T19:14:44.561Z,99058.72
2022-12-18T19:17:12.086Z,99054.38
2022-12-18T19:19:40.444Z,99043.00
2022-12-18T19:22:09.263Z,99039.66
2022-12-18T19:24:37.000Z,99033.47
2022-12-18T19:27:05.872Z,99028.97
2022-12-18T19:29:33.338Z,99041.91
2022-12-18T19:32:01.287Z,99034.94
2022-12-18T19:34:28.784Z,99034.09
2022-12-18T19:36:59.780Z,99026.78
2022-12-18T19:39:28.064Z,99030.84
2022-12-18T19:41:55.525Z,99027.63
2022-12-18T19:44:24.332Z,99041.03
2022-12-18T19:46:52.088Z,99044.81
2022-12-18T19:49:19.563Z,99035.19
2022-12-18T19:51:47.192Z,99034.72
2022-12-18T19:54:18.009Z,99033.00
2022-12-18T19:56:46.558Z,99030.97
2022-12-18T19:59:14.580Z,99031.25
2022-12-18T20:01:43.520Z,99023.34
2022-12-18T20:04:11.207Z,99028.41
2022-12-18T20:06:48.226Z,99038.19
2022-12-18T20:09:15.929Z,99029.75
2022-12-18T20:11:44.265Z,99033.28
2022-12-18T20:14:12.177Z,99022.63
2022-12-18T20:16:39.723Z,99016.00
2022-12-18T20:19:09.778Z,99018.31
2022-12-18T20:21:38.211Z,99023.97
2022-12-18T20:24:07.201Z,99024.94
2022-12-18T20:26:34.888Z,99031.16
2022-12-18T20:29:02.372Z,99036.19
2022-12-18T20:31:30.073Z,99033.47
2022-12-18T20:34:01.764Z,99034.41
2022-12-18T20:36:34.108Z,99029.50
2022-12-18T20:39:04.054Z,99032.53
2022-12-18T20:41:38.475Z,99035.19
2022-12-18T20:44:19.026Z,99031.25
2022-12-18T20:46:51.592Z,99022.63
2022-12-18T20:49:19.055Z,99028.72
2022-12-18T20:51:50.960Z,99021.63
2022-12-18T20:54:18.408Z,99010.00
2022-12-18T20:56:45.842Z,99007.50
2022-12-18T20:59:13.286Z,99000.28
2022-12-18T21:01:45.287Z,98995.13
2022-12-18T21:04:15.694Z,98994.22
2022-12-18T21:06:49.440Z,98994.25
2022-12-18T21:09:21.463Z,98995.53
2022-12-18T21:12:06.620Z,99000.88
2022-12-18T21:14:34.305Z,98988.09
2022-12-18T21:17:02.264Z,98993.50
2022-12-18T21:19:30.305Z,98995.59
2022-12-18T21:21:58.642Z,98996.84
2022-12-18T21:24:28.205Z,98998.22
2022-12-18T21:27:01.712Z,98986.09
2022-12-18T21:29:29.218Z,98977.78
2022-12-18T21:31:57.073Z,98986.13
2022-12-18T21:34:27.149Z,98991.25
2022-12-18T21:36:55.500Z,98997.53
2022-12-18T21:39:23.861Z,98992.88
2022-12-18T21:42:10.424Z,98988.00
2022-12-18T21:44:42.310Z,98993.09
2022-12-18T21:47:22.112Z,98989.19
2022-12-18T21:49:51.034Z,98979.78
2022-12-18T21:52:18.492Z,98988.75
2022-12-18T21:54:45.967Z,98975.81
2022-12-18T21:57:14.838Z,98971.53
2022-12-18T21:59:43.540Z,98979.66
2022-12-18T22:02:13.095Z,98976.41
2022-12-18T22:04:41.760Z,98979.06
2022-12-18T22:07:09.419Z,98993.09
2022-12-18T22:09:38.911Z,98988.56
2022-12-18T22:12:06.977Z,98972.94
2022-12-18T22:14:35.819Z,98966.75
2022-12-18T22:17:03.385Z,98974.69
2022-12-18T22:19:31.508Z,98983.88
2022-12-18T22:21:58.954Z,98970.09
2022-12-18T22:24:29.060Z,98970.47
2022-12-18T22:27:02.066Z,98977.69
2022-12-18T22:29:47.597Z,98979.47
2022-12-18T22:32:17.781Z,98978.38
2022-12-18T22:34:49.543Z,98978.94
2022-12-18T22:37:16.977Z,98966.06
2022-12-18T22:39:44.471Z,98952.06
2022-12-18T22:42:12.015Z,98946.13
2022-12-18T22:44:39.504Z,98960.59
2022-12-18T22:47:07.534Z,98962.38
2022-12-18T22:49:37.046Z,98968.94
2022-12-18T22:52:04.908Z,98975.88
2022-12-18T22:54:32.348Z,98968.19
2022-12-18T22:56:59.781Z,98957.13
2022-12-18T22:59:27.227Z,98957.28
2022-12-18T23:01:58.555Z,98938.63
2022-12-18T23:04:28.498Z,98939.13
2022-12-18T23:07:04.444Z,98949.03
2022-12-18T23:09:32.018Z,98943.72
2022-12-18T23:11:59.501Z,98952.34
2022-12-18T23:14:27.062Z,98969.47
2022-12-18T23:16:54.498Z,98981.56
2022-12-18T23:19:23.546Z,98983.56
2022-12-18T23:21:51.588Z,98971.00
2022-12-18T23:24:20.515Z,98983.66
2022-12-18T23:26:47.950Z,98982.63
2022-12-18T23:29:15.395Z,98964.06
2022-12-18T23:31:42.928Z,98972.31
2022-12-18T23:34:13.778Z,98983.34
2022-12-18T23:36:46.319Z,98982.84
2022-12-18T23:39:28.554Z,98987.31
2022-12-18T23:41:58.088Z,98977.31
2022-12-18T23:44:25.816Z,98967.66
2022-12-18T23:46:53.433Z,98962.38
2022-12-18T23:49:20.979Z,98948.91
2022-12-18T23:51:48.751Z,98955.53
2022-12-18T23:54:16.243Z,98932.47
2022-12-18T23:56:43.818Z,98940.16
2022-12-18T23:59:12.787Z,98929.78
